Time;durP1;ratioP1;P1;durP2;ratioP2;P2;SDS_P1;SDS_P2;PMS_P1;PMS_P2;Temp;Humidity;BMP_temperature;BMP_pressure;BME280_temperature;BME280_humidity;BME280_pressure;Samples;Min_cycle;Max_cycle;Signal;HPM_P1;HPM_P2
2024/01/24 00:01:45;;;;;;;;;;;;;;;17.62;52.86;102181.72;7392461;19;1899;-38
2024/01/24 00:04:14;;;;;;;;;;;;;;;17.64;52.78;102191.38;7393406;19;1533;-38
2024/01/24 00:06:42;;;;;;;;;;;;;;;17.62;52.59;102182.59;7395197;19;1749;-38
2024/01/24 00:09:10;;;;;;;;;;;;;;;17.60;52.69;102202.34;7392947;19;1834;-38
2024/01/24 00:11:41;;;;;;;;;;;;;;;17.55;52.93;102191.06;7394511;19;1127;-38
2024/01/24 00:14:10;;;;;;;;;;;;;;;17.58;52.76;102191.75;7393868;19;1836;-38
2024/01/24 00:16:38;;;;;;;;;;;;;;;17.55;52.67;102199.09;7393373;19;1343;-38
2024/01/24 00:19:07;;;;;;;;;;;;;;;17.61;52.82;102201.41;7393013;19;1864;-38
2024/01/24 00:21:35;;;;;;;;;;;;;;;17.63;52.87;102207.53;7392482;19;1642;-38
2024/01/24 00:24:03;;;;;;;;;;;;;;;17.60;52.74;102205.88;7394322;19;1508;-38
2024/01/24 00:26:33;;;;;;;;;;;;;;;17.58;52.67;102217.63;7379293;19;1532;-37
2024/01/24 00:29:04;;;;;;;;;;;;;;;17.57;52.84;102222.13;7393085;19;1851;-38
2024/01/24 00:31:32;;;;;;;;;;;;;;;17.55;52.93;102215.13;7394045;19;1241;-38
2024/01/24 00:34:00;;;;;;;;;;;;;;;17.53;52.93;102219.72;7393303;19;1457;-38
2024/01/24 00:36:29;;;;;;;;;;;;;;;17.49;53.02;102225.25;7393754;19;1575;-37
2024/01/24 00:38:57;;;;;;;;;;;;;;;17.51;52.79;102225.19;7393412;19;1808;-38
2024/01/24 00:41:25;;;;;;;;;;;;;;;17.54;53.00;102218.78;7393117;19;1755;-38
2024/01/24 00:43:54;;;;;;;;;;;;;;;17.55;52.80;102210.66;7392678;19;1833;-38
2024/01/24 00:46:24;;;;;;;;;;;;;;;17.56;52.83;102216.88;7392778;19;1541;-38
2024/01/24 00:48:53;;;;;;;;;;;;;;;17.54;52.85;102194.69;7392079;19;1423;-38
2024/01/24 00:51:21;;;;;;;;;;;;;;;17.53;52.86;102203.66;7390322;19;1846;-38
2024/01/24 00:53:52;;;;;;;;;;;;;;;17.56;52.84;102203.50;7390846;19;1443;-38
2024/01/24 00:56:21;;;;;;;;;;;;;;;17.54;52.95;102205.41;7392060;19;1495;-39
2024/01/24 00:58:49;;;;;;;;;;;;;;;17.49;52.97;102209.22;7392368;19;1449;-38
2024/01/24 01:01:17;;;;;;;;;;;;;;;17.46;52.92;102222.75;7391940;19;1461;-38
2024/01/24 01:03:48;;;;;;;;;;;;;;;17.42;53.10;102215.84;7391800;19;1267;-38
2024/01/24 01:06:16;;;;;;;;;;;;;;;17.47;52.96;102208.44;7391091;19;1530;-38
2024/01/24 01:08:45;;;;;;;;;;;;;;;17.53;52.69;102201.00;7392661;19;1366;-38
2024/01/24 01:11:13;;;;;;;;;;;;;;;17.48;52.77;102226.19;7391861;19;1854;-38
2024/01/24 01:13:42;;;;;;;;;;;;;;;17.47;52.85;102227.16;7390972;19;1481;-38
2024/01/24 01:16:10;;;;;;;;;;;;;;;17.39;53.19;102224.06;7392435;19;1572;-38
2024/01/24 01:18:38;;;;;;;;;;;;;;;17.40;52.96;102215.09;7391183;19;1501;-38
2024/01/24 01:21:09;;;;;;;;;;;;;;;17.45;52.85;102213.03;7391505;19;1661;-38
2024/01/24 01:23:37;;;;;;;;;;;;;;;17.24;53.72;102215.13;7391416;19;1266;-38
2024/01/24 01:26:06;;;;;;;;;;;;;;;16.88;54.78;102215.41;7391905;19;1509;-38
2024/01/24 01:28:34;;;;;;;;;;;;;;;16.56;55.31;102201.16;7376769;19;1346;-38
2024/01/24 01:31:02;;;;;;;;;;;;;;;16.43;55.67;102222.31;7389975;19;1917;-38
2024/01/24 01:33:31;;;;;;;;;;;;;;;16.35;55.79;102227.19;7391498;19;1824;-38
2024/01/24 01:35:59;;;;;;;;;;;;;;;16.49;56.38;102216.63;7388336;19;1607;-38
2024/01/24 01:38:30;;;;;;;;;;;;;;;16.90;55.05;102221.53;7391090;19;1787;-38
2024/01/24 01:40:58;;;;;;;;;;;;;;;17.38;53.81;102198.28;7390289;19;1423;-38
2024/01/24 01:43:27;;;;;;;;;;;;;;;17.82;52.87;102224.19;7391155;19;1479;-38
2024/01/24 01:45:59;;;;;;;;;;;;;;;17.89;52.82;102201.50;7390497;19;1853;-38
2024/01/24 01:48:29;;;;;;;;;;;;;;;17.95;52.40;102226.19;7390034;19;1359;-38
2024/01/24 01:50:55;;;;;;;;;;;;;;;17.82;52.76;102224.19;7387759;19;1842;-38
2024/01/24 01:53:23;;;;;;;;;;;;;;;17.64;53.08;102225.31;7390572;19;1583;-38
2024/01/24 01:55:54;;;;;;;;;;;;;;;17.53;53.17;102242.00;7390965;19;1773;-38
2024/01/24 01:58:23;;;;;;;;;;;;;;;17.46;53.15;102244.16;7389795;19;1658;-38
2024/01/24 02:00:52;;;;;;;;;;;;;;;17.52;52.96;102260.78;7389882;19;1394;-38
2024/01/24 02:03:20;;;;;;;;;;;;;;;17.54;52.92;102269.59;7389949;19;1638;-38
2024/01/24 02:05:48;;;;;;;;;;;;;;;17.48;53.09;102266.31;7391347;19;1008;-38
2024/01/24 02:08:17;;;;;;;;;;;;;;;17.55;52.87;102255.25;7391009;19;1858;-39
2024/01/24 02:10:45;;;;;;;;;;;;;;;17.53;52.71;102270.53;7388106;19;1847;-38
2024/01/24 02:13:16;;;;;;;;;;;;;;;17.48;53.14;102279.69;7386879;19;1913;-38
2024/01/24 02:15:45;;;;;;;;;;;;;;;17.47;53.11;102261.94;7389265;19;1193;-38
2024/01/24 02:18:13;;;;;;;;;;;;;;;17.50;52.90;102290.31;7389847;19;1804;-37
2024/01/24 02:20:43;;;;;;;;;;;;;;;17.53;52.73;102286.56;7390164;19;1383;-38
2024/01/24 02:23:12;;;;;;;;;;;;;;;17.51;52.92;102284.00;7391357;19;1143;-39
2024/01/24 02:25:43;;;;;;;;;;;;;;;17.50;53.02;102269.75;7390607;19;1790;-38
2024/01/24 02:28:11;;;;;;;;;;;;;;;17.53;52.84;102270.53;7373433;19;1865;-38
2024/01/24 02:30:40;;;;;;;;;;;;;;;17.52;52.75;102261.66;7388686;19;1847;-38
2024/01/24 02:33:08;;;;;;;;;;;;;;;17.45;53.02;102260.31;7389711;19;1398;-38
2024/01/24 02:35:36;;;;;;;;;;;;;;;17.47;52.79;102248.56;7389489;19;1608;-37
2024/01/24 02:38:05;;;;;;;;;;;;;;;17.51;52.80;102259.94;7389933;19;1579;-38
2024/01/24 02:40:33;;;;;;;;;;;;;;;17.50;52.88;102275.09;7388295;19;1821;-38
2024/01/24 02:43:04;;;;;;;;;;;;;;;17.48;52.68;102260.97;7388426;19;1702;-38
2024/01/24 02:45:33;;;;;;;;;;;;;;;17.50;52.77;102272.44;7387446;19;1726;-38
2024/01/24 02:48:01;;;;;;;;;;;;;;;17.52;52.88;102268.81;7389284;19;1499;-37
2024/01/24 02:50:29;;;;;;;;;;;;;;;17.47;52.88;102269.09;7387298;19;1851;-38
2024/01/24 02:52:58;;;;;;;;;;;;;;;17.44;52.93;102262.09;7388844;19;1425;-38
2024/01/24 02:55:26;;;;;;;;;;;;;;;17.52;52.91;102255.44;7389661;19;1540;-38
2024/01/24 02:57:54;;;;;;;;;;;;;;;17.46;52.67;102254.84;7389371;19;1051;-38
2024/01/24 03:00:27;;;;;;;;;;;;;;;17.57;52.67;102242.69;7389141;19;1287;-38
2024/01/24 03:02:56;;;;;;;;;;;;;;;17.55;52.84;102244.56;7388475;19;1884;-38
2024/01/24 03:05:24;;;;;;;;;;;;;;;17.50;52.67;102243.00;7388027;19;1430;-38
2024/01/24 03:07:52;;;;;;;;;;;;;;;17.48;52.80;102266.31;7388074;19;1892;-38
2024/01/24 03:10:21;;;;;;;;;;;;;;;17.45;52.91;102244.25;7387915;19;1845;-38
2024/01/24 03:12:49;;;;;;;;;;;;;;;17.47;52.87;102266.44;7387783;19;1548;-38
2024/01/24 03:15:17;;;;;;;;;;;;;;;17.49;52.71;102262.69;7388020;19;1619;-38
2024/01/24 03:17:48;;;;;;;;;;;;;;;17.49;52.83;102262.69;7390282;19;949;-38
2024/01/24 03:20:17;;;;;;;;;;;;;;;17.48;52.65;102266.31;7388728;19;1850;-37
2024/01/24 03:22:45;;;;;;;;;;;;;;;17.45;52.79;102255.81;7387815;19;1813;-38
2024/01/24 03:25:16;;;;;;;;;;;;;;;17.40;53.00;102249.84;7385458;19;1828;-37
2024/01/24 03:27:44;;;;;;;;;;;;;;;17.44;52.95;102256.75;7374947;19;1512;-38
2024/01/24 03:30:13;;;;;;;;;;;;;;;17.43;52.84;102252.38;7395123;19;1864;-38
2024/01/24 03:32:42;;;;;;;;;;;;;;;17.44;52.87;102256.75;7396063;19;1414;-38
2024/01/24 03:35:13;;;;;;;;;;;;;;;17.36;52.71;102232.25;7395370;19;1580;-38
2024/01/24 03:37:41;;;;;;;;;;;;;;;17.47;52.69;102263.75;7395487;19;1925;-38
2024/01/24 03:40:10;;;;;;;;;;;;;;;17.44;52.92;102248.72;7395618;19;1845;-38
2024/01/24 03:42:38;;;;;;;;;;;;;;;17.42;53.04;102249.78;7394602;19;1477;-38
2024/01/24 03:45:07;;;;;;;;;;;;;;;17.42;52.76;102247.09;7395430;19;1587;-38
2024/01/24 03:47:35;;;;;;;;;;;;;;;17.37;53.05;102247.38;7395728;19;1505;-38
2024/01/24 03:50:04;;;;;;;;;;;;;;;17.33;53.04;102240.47;7394556;19;1855;-38
2024/01/24 03:52:35;;;;;;;;;;;;;;;17.40;52.79;102240.97;7394790;19;1568;-38
2024/01/24 03:55:03;;;;;;;;;;;;;;;17.42;52.68;102277.38;7394568;19;1247;-38
2024/01/24 03:57:31;;;;;;;;;;;;;;;17.41;52.92;102280.16;7394943;19;1103;-38
2024/01/24 04:00:00;;;;;;;;;;;;;;;17.40;52.77;102268.56;7394292;19;1489;-38
2024/01/24 04:02:28;;;;;;;;;;;;;;;17.65;52.63;102269.84;7393329;19;1841;-38
2024/01/24 04:04:56;;;;;;;;;;;;;;;17.94;52.00;102264.59;7394238;19;1864;-38
2024/01/24 04:07:24;;;;;;;;;;;;;;;18.16;51.51;102262.31;7394164;19;1587;-38
2024/01/24 04:09:55;;;;;;;;;;;;;;;18.38;51.29;102261.03;7393773;19;1793;-38
2024/01/24 04:12:24;;;;;;;;;;;;;;;18.34;51.61;102263.03;7389698;19;1888;-39
2024/01/24 04:14:52;;;;;;;;;;;;;;;18.30;51.80;102280.22;7393052;19;1264;-38
2024/01/24 04:17:20;;;;;;;;;;;;;;;18.16;52.27;102270.38;7389570;19;1475;-39
2024/01/24 04:19:49;;;;;;;;;;;;;;;17.67;53.46;102282.16;7391714;19;1468;-39
2024/01/24 04:22:17;;;;;;;;;;;;;;;17.22;54.86;102283.00;7392034;19;1426;-39
2024/01/24 04:24:46;;;;;;;;;;;;;;;16.86;55.53;102271.59;7393630;19;1639;-39
2024/01/24 04:27:18;;;;;;;;;;;;;;;16.70;55.98;102279.56;7392272;19;1512;-39
2024/01/24 04:29:46;;;;;;;;;;;;;;;16.60;56.36;102299.72;7378315;19;1386;-39
2024/01/24 04:32:15;;;;;;;;;;;;;;;16.73;56.24;102273.19;7390144;19;1878;-39
2024/01/24 04:34:43;;;;;;;;;;;;;;;17.38;54.81;102278.50;7391448;19;1235;-39
2024/01/24 04:37:11;;;;;;;;;;;;;;;18.05;53.52;102283.56;7391679;19;1462;-38
2024/01/24 04:39:40;;;;;;;;;;;;;;;18.52;51.87;102282.44;7392267;19;1767;-39
2024/01/24 04:42:09;;;;;;;;;;;;;;;18.62;51.57;102280.94;7393532;19;1381;-39
2024/01/24 04:44:40;;;;;;;;;;;;;;;18.54;51.81;102261.78;7393319;19;1473;-38
2024/01/24 04:47:08;;;;;;;;;;;;;;;18.45;52.12;102290.00;7394337;19;1199;-39
2024/01/24 04:49:37;;;;;;;;;;;;;;;18.45;52.02;102289.16;7393066;19;1506;-39
2024/01/24 04:52:05;;;;;;;;;;;;;;;18.31;51.62;102294.50;7390723;19;1923;-38
2024/01/24 04:54:35;;;;;;;;;;;;;;;18.27;51.68;102286.66;7393300;19;1659;-39
2024/01/24 04:57:04;;;;;;;;;;;;;;;18.29;51.43;102303.47;7390823;19;1810;-38
2024/01/24 04:59:32;;;;;;;;;;;;;;;18.26;51.67;102318.88;7391771;19;1812;-38
2024/01/24 05:02:05;;;;;;;;;;;;;;;18.25;51.64;102299.28;7390029;19;1391;-38
2024/01/24 05:04:34;;;;;;;;;;;;;;;18.43;51.30;102304.47;7392707;19;1591;-38
2024/01/24 05:07:02;;;;;;;;;;;;;;;18.43;51.18;102288.41;7391471;19;1809;-38
2024/01/24 05:09:30;;;;;;;;;;;;;;;18.39;51.30;102300.25;7392428;19;1406;-38
2024/01/24 05:11:59;;;;;;;;;;;;;;;18.45;51.00;102291.84;7391299;19;1847;-38
2024/01/24 05:14:28;;;;;;;;;;;;;;;18.44;51.38;102315.09;7392027;19;1120;-38
2024/01/24 05:16:56;;;;;;;;;;;;;;;18.33;51.71;102322.06;7392331;19;1876;-39
2024/01/24 05:19:27;;;;;;;;;;;;;;;18.36;51.44;102314.66;7392335;19;1783;-39
2024/01/24 05:21:56;;;;;;;;;;;;;;;18.39;51.45;102319.00;7389929;19;1852;-38
2024/01/24 05:24:24;;;;;;;;;;;;;;;18.28;51.90;102328.56;7391246;19;1766;-39
2024/01/24 05:26:52;;;;;;;;;;;;;;;18.42;51.16;102318.78;7391260;19;1707;-38
2024/01/24 05:29:21;;;;;;;;;;;;;;;18.39;51.23;102305.59;7376534;19;1391;-38
2024/01/24 05:31:49;;;;;;;;;;;;;;;18.31;51.59;102313.25;7388218;19;1865;-39
2024/01/24 05:34:18;;;;;;;;;;;;;;;18.39;51.31;102310.97;7389403;19;1253;-38
2024/01/24 05:36:49;;;;;;;;;;;;;;;18.50;51.36;102329.91;7389508;19;1477;-39
2024/01/24 05:39:17;;;;;;;;;;;;;;;18.38;51.66;102330.66;7391324;19;1386;-38
2024/01/24 05:41:46;;;;;;;;;;;;;;;18.46;52.18;102329.25;7391897;19;1751;-39
2024/01/24 05:44:14;;;;;;;;;;;;;;;18.52;51.92;102322.63;7391833;19;977;-38
2024/01/24 05:46:43;;;;;;;;;;;;;;;18.48;52.03;102359.47;7392218;19;1779;-39
2024/01/24 05:49:11;;;;;;;;;;;;;;;18.34;52.50;102337.16;7386616;19;1822;-38
2024/01/24 05:51:42;;;;;;;;;;;;;;;18.04;51.09;102314.78;7385095;19;1904;-39
2024/01/24 05:54:13;;;;;;;;;;;;;;;18.17;50.64;102322.13;7385962;19;1733;-39
2024/01/24 05:56:41;;;;;;;;;;;;;;;18.26;50.65;102327.78;7387683;19;1402;-39
2024/01/24 05:59:09;;;;;;;;;;;;;;;18.24;50.37;102327.03;7386185;19;1327;-38
2024/01/24 06:01:38;;;;;;;;;;;;;;;17.73;51.47;102328.25;7386584;19;1707;-39
2024/01/24 06:04:06;;;;;;;;;;;;;;;17.24;52.76;102339.91;7386253;19;1531;-38
2024/01/24 06:06:34;;;;;;;;;;;;;;;16.92;53.36;102341.69;7385365;19;1438;-38
2024/01/24 06:09:03;;;;;;;;;;;;;;;16.64;53.89;102352.00;7389393;19;1821;-39
2024/01/24 06:11:34;;;;;;;;;;;;;;;16.63;54.21;102333.38;7387677;19;1858;-38
2024/01/24 06:14:03;;;;;;;;;;;;;;;16.90;53.49;102352.47;7384047;19;1552;-39
2024/01/24 06:16:31;;;;;;;;;;;;;;;17.80;51.48;102341.16;7385953;19;1308;-39
2024/01/24 06:18:59;;;;;;;;;;;;;;;18.23;50.59;102337.81;7384869;19;1436;-38
2024/01/24 06:21:27;;;;;;;;;;;;;;;18.54;50.07;102355.53;7384445;19;1759;-38
2024/01/24 06:23:56;;;;;;;;;;;;;;;18.44;50.15;102349.03;7385635;19;1201;-38
2024/01/24 06:26:24;;;;;;;;;;;;;;;18.50;49.99;102327.22;7388457;19;1842;-38
2024/01/24 06:28:56;;;;;;;;;;;;;;;18.56;49.86;102331.34;7375764;19;1591;-38
2024/01/24 06:31:25;;;;;;;;;;;;;;;18.47;50.03;102341.66;7389866;19;1845;-39
2024/01/24 06:33:53;;;;;;;;;;;;;;;18.46;50.04;102366.75;7391470;19;1151;-38
2024/01/24 06:36:22;;;;;;;;;;;;;;;18.45;50.06;102351.63;7390320;19;1535;-38
2024/01/24 06:38:51;;;;;;;;;;;;;;;18.36;50.39;102352.16;7386136;19;1762;-38
2024/01/24 06:41:19;;;;;;;;;;;;;;;18.32;50.53;102342.59;7371722;19;1493;-38
2024/01/24 06:43:48;;;;;;;;;;;;;;;18.21;50.48;102340.56;7387235;19;1447;-39
2024/01/24 06:46:19;;;;;;;;;;;;;;;18.18;50.55;102322.00;7388652;19;1366;-39
2024/01/24 06:48:47;;;;;;;;;;;;;;;18.20;50.69;102333.47;7388221;19;1648;-39
2024/01/24 06:51:15;;;;;;;;;;;;;;;18.15;50.85;102365.03;7387388;19;1865;-39
2024/01/24 06:53:44;;;;;;;;;;;;;;;18.20;50.69;102354.03;7385593;19;1506;-39
2024/01/24 06:56:12;;;;;;;;;;;;;;;18.25;50.47;102327.88;7387456;19;1750;-39
2024/01/24 06:58:40;;;;;;;;;;;;;;;18.28;50.55;102314.28;7387423;19;1201;-39
2024/01/24 07:01:09;;;;;;;;;;;;;;;18.28;50.56;102325.88;7385344;19;1647;-39
2024/01/24 07:03:40;;;;;;;;;;;;;;;18.34;50.43;102332.66;7390208;19;1208;-39
2024/01/24 07:06:09;;;;;;;;;;;;;;;18.31;50.39;102340.03;7392551;19;1475;-39
2024/01/24 07:08:37;;;;;;;;;;;;;;;18.31;50.40;102345.38;7395961;19;1159;-39
2024/01/24 07:11:06;;;;;;;;;;;;;;;18.26;50.44;102335.81;7393973;19;1873;-39
2024/01/24 07:13:34;;;;;;;;;;;;;;;18.20;50.45;102328.13;7392499;19;1480;-39
2024/01/24 07:16:04;;;;;;;;;;;;;;;18.24;50.55;102339.53;7394772;19;1748;-39
2024/01/24 07:18:32;;;;;;;;;;;;;;;18.23;50.53;102317.25;7393401;19;1449;-40
2024/01/24 07:21:06;;;;;;;;;;;;;;;18.26;50.55;102325.09;7393915;19;1391;-39
2024/01/24 07:23:34;;;;;;;;;;;;;;;18.24;50.61;102345.75;7395033;19;1549;-39
2024/01/24 07:26:03;;;;;;;;;;;;;;;18.22;50.38;102342.31;7394198;19;1428;-41
2024/01/24 07:28:32;;;;;;;;;;;;;;;17.41;51.36;102305.06;7378495;19;1217;-39
2024/01/24 07:31:00;;;;;;;;;;;;;;;17.31;52.53;102368.06;7394350;19;1435;-40
2024/01/24 07:33:28;;;;;;;;;;;;;;;16.96;53.40;102386.00;7390386;19;1842;-39
2024/01/24 07:35:57;;;;;;;;;;;;;;;16.77;53.60;102378.97;7391461;19;1615;-39
2024/01/24 07:38:28;;;;;;;;;;;;;;;16.79;54.25;102389.53;7393846;19;1670;-39
2024/01/24 07:40:56;;;;;;;;;;;;;;;17.06;53.35;102387.25;7393620;19;1825;-39
2024/01/24 07:43:25;;;;;;;;;;;;;;;17.83;51.53;102382.97;7393942;19;1788;-39
2024/01/24 07:45:54;;;;;;;;;;;;;;;18.22;50.97;102379.81;7390305;19;1817;-39
2024/01/24 07:48:22;;;;;;;;;;;;;;;18.43;50.29;102382.13;7392991;19;1817;-39
2024/01/24 07:50:50;;;;;;;;;;;;;;;18.44;50.31;102375.81;7394960;19;1127;-39
2024/01/24 07:53:19;;;;;;;;;;;;;;;18.37;50.68;102387.88;7390945;19;1878;-39
2024/01/24 07:55:49;;;;;;;;;;;;;;;18.27;50.74;102377.69;7392752;19;1792;-39
2024/01/24 07:58:18;;;;;;;;;;;;;;;17.74;51.64;102384.34;7391186;19;1793;-39
2024/01/24 08:00:46;;;;;;;;;;;;;;;17.27;52.62;102390.56;7391662;19;1484;-39
2024/01/24 08:03:16;;;;;;;;;;;;;;;16.95;53.46;102398.50;7391936;19;1497;-39
2024/01/24 08:05:45;;;;;;;;;;;;;;;16.74;54.00;102389.78;7392923;19;1113;-39
2024/01/24 08:08:13;;;;;;;;;;;;;;;16.62;54.20;102377.94;7393509;19;1816;-39
2024/01/24 08:10:42;;;;;;;;;;;;;;;16.50;54.47;102374.09;7392997;19;1063;-39
2024/01/24 08:13:13;;;;;;;;;;;;;;;16.40;54.37;102393.34;7387975;19;1831;-39
2024/01/24 08:15:41;;;;;;;;;;;;;;;16.46;54.64;102366.34;7388505;19;1589;-39
2024/01/24 08:18:11;;;;;;;;;;;;;;;17.09;52.89;102376.38;7392541;19;1441;-39
2024/01/24 08:20:39;;;;;;;;;;;;;;;17.69;51.38;102351.66;7393558;19;1407;-39
2024/01/24 08:23:07;;;;;;;;;;;;;;;18.24;50.45;102361.81;7391281;19;1055;-39
2024/01/24 08:25:35;;;;;;;;;;;;;;;18.55;49.86;102376.03;7390422;19;1798;-39
2024/01/24 08:28:04;;;;;;;;;;;;;;;18.85;48.90;102361.75;7391308;19;1796;-39
2024/01/24 08:30:35;;;;;;;;;;;;;;;19.02;48.51;102361.53;7377812;19;1505;-39
2024/01/24 08:33:03;;;;;;;;;;;;;;;18.90;48.77;102375.72;7390243;19;1957;-40
2024/01/24 08:35:33;;;;;;;;;;;;;;;19.03;48.52;102371.31;7391722;19;1149;-39
2024/01/24 08:38:01;;;;;;;;;;;;;;;19.01;48.73;102375.91;7392894;19;1822;-40
2024/01/24 08:40:30;;;;;;;;;;;;;;;18.95;48.72;102362.88;7391302;19;1769;-39
2024/01/24 08:42:58;;;;;;;;;;;;;;;18.93;48.92;102362.13;7390521;19;1198;-40
2024/01/24 08:45:26;;;;;;;;;;;;;;;18.79;49.36;102387.09;7390087;19;1738;-40
2024/01/24 08:47:57;;;;;;;;;;;;;;;18.87;48.47;102370.53;7390626;19;1453;-39
2024/01/24 08:50:26;;;;;;;;;;;;;;;18.79;48.67;102371.00;7390720;19;1590;-39
2024/01/24 08:52:54;;;;;;;;;;;;;;;18.76;48.96;102372.97;7390239;19;1857;-41
2024/01/24 08:55:22;;;;;;;;;;;;;;;18.71;49.22;102364.38;7388450;19;1393;-39
2024/01/24 08:57:51;;;;;;;;;;;;;;;18.69;49.33;102343.88;7391125;19;1579;-39
2024/01/24 09:00:19;;;;;;;;;;;;;;;18.66;49.44;102345.88;7391436;19;1351;-39
2024/01/24 09:02:47;;;;;;;;;;;;;;;18.63;49.87;102355.00;7390469;19;1562;-39
2024/01/24 09:05:20;;;;;;;;;;;;;;;17.63;49.77;102311.88;7389878;19;1564;-39
2024/01/24 09:07:49;;;;;;;;;;;;;;;17.41;51.08;102373.75;7382261;19;1391;-39
2024/01/24 09:10:18;;;;;;;;;;;;;;;17.10;51.88;102362.91;7390445;19;1501;-39
2024/01/24 09:12:46;;;;;;;;;;;;;;;16.83;51.78;102381.34;7389245;19;1838;-39
2024/01/24 09:15:15;;;;;;;;;;;;;;;16.73;53.06;102368.50;7387857;19;1480;-39
2024/01/24 09:17:43;;;;;;;;;;;;;;;17.12;52.33;102348.63;7387980;19;1937;-39
2024/01/24 09:20:12;;;;;;;;;;;;;;;17.74;51.04;102356.72;7388002;19;1477;-39
2024/01/24 09:22:43;;;;;;;;;;;;;;;18.06;50.19;102341.47;7390095;19;1832;-39
2024/01/24 09:25:11;;;;;;;;;;;;;;;18.36;49.50;102343.28;7389724;19;1576;-40
2024/01/24 09:27:39;;;;;;;;;;;;;;;18.52;49.55;102352.09;7389966;19;1459;-39
2024/01/24 09:30:09;;;;;;;;;;;;;;;18.61;49.88;102351.53;7376189;19;1667;-39
2024/01/24 09:32:38;;;;;;;;;;;;;;;18.52;50.12;102357.44;7389795;19;1839;-39
2024/01/24 09:35:06;;;;;;;;;;;;;;;18.51;50.29;102342.34;7388335;19;1343;-39
2024/01/24 09:37:35;;;;;;;;;;;;;;;18.47;50.63;102336.31;7390336;19;1539;-39
2024/01/24 09:40:06;;;;;;;;;;;;;;;18.50;50.52;102335.25;7390196;19;1099;-39
2024/01/24 09:42:41;;;;;;;;;;;;;;;18.63;50.22;102328.19;7387936;19;1509;-39
2024/01/24 09:45:10;;;;;;;;;;;;;;;18.44;51.08;102335.63;7384935;19;1409;-40
2024/01/24 09:47:40;;;;;;;;;;;;;;;18.33;51.08;102328.25;7386987;19;1216;-39
2024/01/24 09:50:08;;;;;;;;;;;;;;;18.24;51.20;102334.16;7388977;19;1350;-39
2024/01/24 09:52:37;;;;;;;;;;;;;;;18.20;51.48;102322.78;7387898;19;1846;-39
2024/01/24 09:55:10;;;;;;;;;;;;;;;18.17;51.57;102312.25;7388887;19;1302;-39
2024/01/24 09:57:39;;;;;;;;;;;;;;;18.19;51.51;102313.03;7390178;19;1064;-39
2024/01/24 10:00:09;;;;;;;;;;;;;;;18.28;51.32;102303.56;7389533;19;1125;-39
2024/01/24 10:02:37;;;;;;;;;;;;;;;18.61;50.51;102281.03;7387979;19;1479;-39
2024/01/24 10:05:06;;;;;;;;;;;;;;;18.53;50.32;102286.00;7387326;19;1900;-39
2024/01/24 10:07:35;;;;;;;;;;;;;;;18.48;50.54;102280.91;7387821;19;1561;-39
2024/01/24 10:10:10;;;;;;;;;;;;;;;18.59;50.55;102278.44;7385894;19;1490;-39
2024/01/24 10:12:39;;;;;;;;;;;;;;;18.62;50.39;102269.34;7384145;19;1883;-39
2024/01/24 10:15:08;;;;;;;;;;;;;;;18.70;50.09;102267.03;7388495;19;1312;-39
2024/01/24 10:17:36;;;;;;;;;;;;;;;18.59;50.35;102251.66;7384770;19;1795;-40
2024/01/24 10:20:06;;;;;;;;;;;;;;;18.57;50.46;102250.88;7387179;19;1829;-39
2024/01/24 10:22:34;;;;;;;;;;;;;;;18.61;50.55;102252.41;7386707;19;1484;-38
2024/01/24 10:25:03;;;;;;;;;;;;;;;18.65;50.39;102237.00;7386991;19;1508;-39
2024/01/24 10:27:35;;;;;;;;;;;;;;;18.71;50.37;102258.06;7384635;19;1440;-39
2024/01/24 10:30:03;;;;;;;;;;;;;;;18.67;50.43;102257.38;7372065;19;1386;-39
2024/01/24 10:32:35;;;;;;;;;;;;;;;18.62;50.50;102245.22;7383136;19;1855;-39
2024/01/24 10:35:05;;;;;;;;;;;;;;;18.60;50.56;102228.38;7387939;19;1894;-39
2024/01/24 10:37:31;;;;;;;;;;;;;;;18.61;50.71;102222.94;7384398;19;1487;-39
2024/01/24 10:40:01;;;;;;;;;;;;;;;18.59;50.75;102235.56;7386964;19;1610;-38
2024/01/24 10:42:30;;;;;;;;;;;;;;;18.51;50.62;102219.13;7388213;19;1739;-39
2024/01/24 10:45:03;;;;;;;;;;;;;;;18.57;50.55;102212.53;7387298;19;1509;-39
2024/01/24 10:47:31;;;;;;;;;;;;;;;18.66;50.19;102218.16;7385491;19;1510;-39
2024/01/24 10:50:02;;;;;;;;;;;;;;;18.63;50.62;102226.38;7387446;19;1746;-39
2024/01/24 10:52:30;;;;;;;;;;;;;;;18.34;51.08;102222.84;7386720;19;1874;-39
2024/01/24 10:55:03;;;;;;;;;;;;;;;17.76;52.30;102229.91;7384324;19;1500;-40
2024/01/24 10:57:32;;;;;;;;;;;;;;;17.38;53.35;102233.03;7378989;19;1840;-39
2024/01/24 11:00:04;;;;;;;;;;;;;;;17.06;53.43;102227.72;7384904;19;1729;-39
2024/01/24 11:02:33;;;;;;;;;;;;;;;16.77;53.79;102221.34;7387510;19;1378;-39
2024/01/24 11:05:03;;;;;;;;;;;;;;;16.70;54.79;102220.78;7387637;19;1602;-39
2024/01/24 11:07:34;;;;;;;;;;;;;;;17.02;54.27;102188.75;7383363;19;1950;-39
2024/01/24 11:10:11;;;;;;;;;;;;;;;17.69;52.68;102194.66;7386389;19;1486;-39
2024/01/24 11:12:39;;;;;;;;;;;;;;;18.08;51.68;102176.28;7386848;19;1830;-39
2024/01/24 11:15:14;;;;;;;;;;;;;;;18.44;50.80;102180.28;7388179;19;1123;-39
2024/01/24 11:17:45;;;;;;;;;;;;;;;18.59;50.23;102165.06;7385964;19;1751;-39
2024/01/24 11:20:14;;;;;;;;;;;;;;;18.74;50.03;102163.19;7387584;19;1517;-39
2024/01/24 11:22:42;;;;;;;;;;;;;;;18.99;49.46;102159.81;7387770;19;1828;-39
2024/01/24 11:25:13;;;;;;;;;;;;;;;19.01;49.38;102142.66;7388148;19;1605;-39
2024/01/24 11:27:43;;;;;;;;;;;;;;;19.03;49.27;102146.09;7387100;19;1829;-39
2024/01/24 11:30:39;;;;;;;;;;;;;;;19.11;49.19;102126.81;7369985;19;1559;-39
2024/01/24 11:33:13;;;;;;;;;;;;;;;18.89;49.65;102132.75;7386544;19;1849;-39
2024/01/24 11:35:45;;;;;;;;;;;;;;;18.49;50.58;102128.13;7386994;19;1817;-39
2024/01/24 11:38:28;;;;;;;;;;;;;;;18.44;50.68;102121.34;7387144;19;1500;-39
2024/01/24 11:40:59;;;;;;;;;;;;;;;18.63;50.27;102105.81;7386191;19;1825;-39
2024/01/24 11:43:28;;;;;;;;;;;;;;;18.57;50.23;102110.72;7386249;19;1395;-40
2024/01/24 11:46:02;;;;;;;;;;;;;;;18.49;50.58;102109.38;7386275;19;1340;-40
2024/01/24 11:48:31;;;;;;;;;;;;;;;18.48;50.53;102101.44;7381910;19;1196;-39
2024/01/24 11:51:00;;;;;;;;;;;;;;;18.67;49.93;102093.94;7390978;19;1462;-39
2024/01/24 11:53:28;;;;;;;;;;;;;;;18.62;50.31;102093.38;7389425;19;1888;-39
2024/01/24 11:55:57;;;;;;;;;;;;;;;18.64;50.14;102079.88;7393877;19;1430;-39
2024/01/24 11:58:28;;;;;;;;;;;;;;;18.60;50.42;102089.06;7392981;19;1173;-39
2024/01/24 12:01:02;;;;;;;;;;;;;;;18.60;50.27;102068.53;7393711;19;1853;-39
2024/01/24 12:03:31;;;;;;;;;;;;;;;18.66;50.10;102069.91;7326882;19;12726;-39
2024/01/24 12:06:00;;;;;;;;;;;;;;;18.63;50.29;102064.78;7393516;19;1097;-39
2024/01/24 12:08:28;;;;;;;;;;;;;;;18.69;50.11;102059.84;7391047;19;1258;-39
2024/01/24 12:10:57;;;;;;;;;;;;;;;18.65;50.10;102062.84;7391440;19;1480;-39
2024/01/24 12:13:26;;;;;;;;;;;;;;;18.55;50.48;102059.91;7390634;19;1835;-39
2024/01/24 12:15:56;;;;;;;;;;;;;;;18.59;50.49;102050.72;7392491;19;1429;-39
2024/01/24 12:18:27;;;;;;;;;;;;;;;18.61;50.29;102066.69;7388892;19;1491;-40
2024/01/24 12:20:56;;;;;;;;;;;;;;;18.55;50.48;102054.56;7390688;19;1505;-39
2024/01/24 12:23:25;;;;;;;;;;;;;;;18.58;50.41;102046.34;7392306;19;1499;-39
2024/01/24 12:25:53;;;;;;;;;;;;;;;18.61;50.48;102046.09;7391904;19;1367;-39
2024/01/24 12:28:22;;;;;;;;;;;;;;;18.59;50.48;102031.97;7389981;19;1788;-39
2024/01/24 12:30:50;;;;;;;;;;;;;;;18.59;50.46;102037.31;7376208;19;1982;-39
2024/01/24 12:33:20;;;;;;;;;;;;;;;18.57;50.43;102030.34;7391628;19;1847;-39
2024/01/24 12:35:51;;;;;;;;;;;;;;;18.64;50.23;102027.16;7392509;19;1628;-39
2024/01/24 12:38:19;;;;;;;;;;;;;;;18.63;50.11;102014.72;7391042;19;1972;-39
2024/01/24 12:40:51;;;;;;;;;;;;;;;18.67;50.42;102005.50;7386101;19;1510;-40
2024/01/24 12:43:21;;;;;;;;;;;;;;;18.75;50.16;102015.72;7389891;19;1522;-39
2024/01/24 12:45:50;;;;;;;;;;;;;;;18.65;50.45;102011.94;7388777;19;1572;-40
2024/01/24 12:48:18;;;;;;;;;;;;;;;18.73;50.54;102014.09;7387836;19;1502;-39
2024/01/24 12:50:46;;;;;;;;;;;;;;;18.39;50.38;101952.94;7388361;19;1397;-40
2024/01/24 12:53:19;;;;;;;;;;;;;;;18.77;50.30;101996.84;7390661;19;1849;-39
2024/01/24 12:55:47;;;;;;;;;;;;;;;18.72;50.48;101985.59;7389304;19;1501;-40
2024/01/24 12:58:15;;;;;;;;;;;;;;;18.74;50.37;101973.81;7390743;19;1593;-39